Time;durP1;ratioP1;P1;durP2;ratioP2;P2;SDS_P1;SDS_P2;PMS_P1;PMS_P2;Temp;Humidity;BMP_temperature;BMP_pressure;BME280_temperature;BME280_humidity;BME280_pressure;Samples;Min_cycle;Max_cycle;Signal;HPM_P1;HPM_P2
2023/10/21 00:01:57;;;;;;;4.32;3.17;;;;;;;21.83;48.32;98331.06;5045947;28;20094;-78
2023/10/21 00:04:23;;;;;;;3.45;2.72;;;;;;;21.83;48.37;98328.38;5046057;28;20033;-78
2023/10/21 00:06:48;;;;;;;5.07;3.20;;;;;;;21.63;48.50;98299.19;5062468;28;20055;-77
2023/10/21 00:09:13;;;;;;;4.03;3.00;;;;;;;21.84;48.62;98322.72;5029229;28;20102;-78
2023/10/21 00:11:39;;;;;;;4.28;2.97;;;;;;;21.80;48.57;98320.78;5063723;28;20044;-78
2023/10/21 00:14:06;;;;;;;3.78;2.78;;;;;;;21.61;48.39;98285.91;5063623;28;20025;-78
2023/10/21 00:16:31;;;;;;;3.80;3.00;;;;;;;21.85;48.23;98332.47;5045859;28;20031;-77
2023/10/21 00:18:56;;;;;;;3.72;2.67;;;;;;;21.84;48.53;98344.38;5046126;28;20088;-78
2023/10/21 00:21:22;;;;;;;4.47;3.03;;;;;;;21.74;48.22;98328.00;5043913;28;20044;-78
2023/10/21 00:23:47;;;;;;;4.32;2.97;;;;;;;21.84;48.43;98357.91;5043540;28;20122;-78
2023/10/21 00:26:12;;;;;;;3.15;2.50;;;;;;;21.73;48.12;98339.06;5063743;28;20032;-77
2023/10/21 00:28:37;;;;;;;4.75;3.17;;;;;;;21.80;48.30;98359.47;5063938;28;20058;-78
2023/10/21 00:31:06;;;;;;;3.55;2.30;;;;;;;21.61;48.26;98331.88;5045697;28;20040;-78
2023/10/21 00:33:31;;;;;;;4.60;2.67;;;;;;;21.49;48.33;98306.00;5063242;28;20028;-78
2023/10/21 00:35:56;;;;;;;4.25;2.55;;;;;;;21.78;48.28;98358.88;5062927;28;20062;-78
2023/10/21 00:38:21;;;;;;;3.10;2.30;;;;;;;21.81;48.47;98368.41;5063105;28;20060;-77
2023/10/21 00:40:51;;;;;;;3.13;2.38;;;;;;;21.81;48.30;98374.63;5045441;28;20037;-78
2023/10/21 00:43:36;;;;;;;3.70;2.30;;;;;;;21.81;48.27;98371.09;5063277;28;20068;-78
2023/10/21 00:46:16;;;;;;;4.75;3.00;;;;;;;21.80;48.13;98383.00;5060319;28;20029;-78
2023/10/21 00:48:41;;;;;;;3.08;1.92;;;;;;;21.69;48.13;98373.91;5045405;28;20028;-78
2023/10/21 00:51:07;;;;;;;4.60;2.95;;;;;;;21.59;48.39;98360.25;5044908;28;20028;-78
2023/10/21 00:53:33;;;;;;;3.95;2.17;;;;;;;21.70;48.38;98386.34;5047697;28;20021;-78
2023/10/21 00:55:59;;;;;;;2.97;2.30;;;;;;;21.70;48.38;98394.47;5065576;28;20025;-77
2023/10/21 00:58:27;;;;;;;4.13;2.63;;;;;;;21.68;48.16;98402.00;5049956;28;20096;-78
2023/10/21 01:00:55;;;;;;;5.78;2.97;;;;;;;21.64;48.24;98400.88;5049454;28;20077;-78
2023/10/21 01:03:22;;;;;;;4.55;2.75;;;;;;;21.41;48.27;98370.25;5049428;28;20084;-78
2023/10/21 01:05:48;;;;;;;5.13;2.72;;;;;;;21.36;48.85;98361.22;5049072;28;20045;-78
2023/10/21 01:08:13;;;;;;;3.65;2.17;;;;;;;21.57;48.48;98403.72;5032317;28;20021;-78
2023/10/21 01:10:38;;;;;;;3.38;2.15;;;;;;;21.54;48.60;98404.25;5032676;28;20117;-78
2023/10/21 01:13:04;;;;;;;2.90;1.98;;;;;;;21.52;48.50;98414.47;5066917;28;20083;-77
2023/10/21 01:15:29;;;;;;;3.97;2.65;;;;;;;21.31;48.86;98383.56;5066140;28;20025;-78
2023/10/21 01:17:54;;;;;;;4.45;2.53;;;;;;;21.48;48.71;98423.31;5049263;28;20477;-78
2023/10/21 01:20:20;;;;;;;2.58;2.17;;;;;;;21.07;48.76;98365.84;5066415;28;20025;-77
2023/10/21 01:22:45;;;;;;;3.08;2.25;;;;;;;21.40;48.79;98427.25;5046219;28;20031;-77
2023/10/21 01:25:11;;;;;;;3.40;2.83;;;;;;;21.41;48.67;98429.72;5066712;28;20035;-78
2023/10/21 01:27:36;;;;;;;3.75;2.30;;;;;;;21.25;48.65;98411.56;5050481;28;20024;-78
2023/10/21 01:30:05;;;;;;;3.88;2.13;;;;;;;21.32;48.71;98424.94;5048383;28;20036;-78
2023/10/21 01:32:30;;;;;;;3.33;2.45;;;;;;;21.39;49.18;98448.06;5048873;28;20017;-78
2023/10/21 01:34:55;;;;;;;4.70;2.70;;;;;;;21.37;48.99;98443.97;5048369;28;20032;-78
2023/10/21 01:37:21;;;;;;;2.83;2.22;;;;;;;21.36;49.16;98451.25;5032322;28;20028;-77
2023/10/21 01:39:46;;;;;;;2.90;1.80;;;;;;;21.22;49.22;98436.38;5063192;28;20044;-78
2023/10/21 01:42:11;;;;;;;3.03;2.00;;;;;;;21.06;49.33;98407.44;5053540;28;20151;-78
2023/10/21 01:44:36;;;;;;;3.83;2.40;;;;;;;21.14;49.32;98425.97;5048812;28;20041;-77
2023/10/21 01:47:02;;;;;;;2.70;2.15;;;;;;;21.28;49.15;98451.63;5048675;28;20086;-78
2023/10/21 01:49:27;;;;;;;2.65;1.85;;;;;;;20.93;49.39;98403.97;5048706;28;20040;-78
2023/10/21 01:51:52;;;;;;;3.05;2.13;;;;;;;21.25;48.92;98457.53;5066258;28;20535;-78
2023/10/21 01:54:17;;;;;;;3.60;2.13;;;;;;;21.09;49.18;98436.69;5047158;28;20037;-78
2023/10/21 01:56:43;;;;;;;3.20;2.38;;;;;;;21.07;49.47;98439.63;5048659;28;20021;-78
2023/10/21 01:59:08;;;;;;;3.45;2.40;;;;;;;21.09;49.17;98450.19;5048140;28;20455;-77
2023/10/21 02:01:34;;;;;;;3.33;2.47;;;;;;;21.04;49.41;98448.22;5048505;28;20035;-78
2023/10/21 02:04:00;;;;;;;3.00;2.00;;;;;;;21.15;49.41;98457.31;5065036;28;20032;-78
2023/10/21 02:06:25;;;;;;;3.28;2.10;;;;;;;21.03;49.27;98452.00;5048068;28;20033;-78
2023/10/21 02:08:50;;;;;;;2.60;1.90;;;;;;;21.05;49.13;98460.66;5065607;28;20078;-78
2023/10/21 02:11:20;;;;;;;2.50;2.00;;;;;;;20.83;49.32;98430.81;5065798;28;20145;-78
2023/10/21 02:13:46;;;;;;;3.88;1.95;;;;;;;20.89;49.22;98448.75;5048523;28;20051;-78
2023/10/21 02:16:11;;;;;;;3.03;2.20;;;;;;;20.79;49.45;98428.84;5065852;28;20029;-77
2023/10/21 02:18:36;;;;;;;2.70;2.05;;;;;;;21.14;49.53;98491.63;5048158;28;20021;-78
2023/10/21 02:21:05;;;;;;;2.20;1.95;;;;;;;21.12;49.54;98491.06;5047294;28;20074;-77
2023/10/21 02:23:30;;;;;;;2.88;2.03;;;;;;;21.09;49.31;98483.44;5064235;28;20095;-78
2023/10/21 02:26:03;;;;;;;3.00;1.85;;;;;;;21.10;49.55;98493.16;5066079;28;20100;-77
2023/10/21 02:28:28;;;;;;;3.47;1.95;;;;;;;21.07;49.71;98482.03;5046653;28;20024;-78
2023/10/21 02:30:54;;;;;;;3.47;2.33;;;;;;;20.91;49.68;98475.53;5047601;28;20052;-78
2023/10/21 02:33:19;;;;;;;2.55;2.17;;;;;;;20.90;49.78;98465.78;5048026;28;20096;-78
2023/10/21 02:35:45;;;;;;;2.35;2.05;;;;;;;20.89;49.79;98467.66;5047511;28;20033;-77
2023/10/21 02:38:10;;;;;;;3.05;2.47;;;;;;;20.58;49.57;98425.75;5046475;28;20029;-77
2023/10/21 02:40:40;;;;;;;2.92;2.17;;;;;;;21.02;50.01;98501.66;5047347;28;20047;-77
2023/10/21 02:43:06;;;;;;;2.88;1.83;;;;;;;20.97;49.50;98493.47;5065836;28;20116;-78
2023/10/21 02:45:31;;;;;;;3.85;1.98;;;;;;;20.93;49.72;98493.13;5047764;28;20025;-78
2023/10/21 02:47:56;;;;;;;2.55;1.80;;;;;;;20.88;49.76;98490.31;5065525;28;20036;-78
2023/10/21 02:50:21;;;;;;;2.10;1.60;;;;;;;20.97;49.70;98506.97;5047260;28;20057;-78
2023/10/21 02:52:48;;;;;;;2.70;1.88;;;;;;;20.76;50.00;98475.22;5063694;28;20053;-78
2023/10/21 02:55:14;;;;;;;2.13;1.65;;;;;;;20.94;49.86;98513.69;5047212;28;20024;-77
2023/10/21 02:57:39;;;;;;;3.17;2.13;;;;;;;20.47;49.81;98450.84;5047602;28;20389;-77
2023/10/21 03:00:10;;;;;;;3.22;2.00;;;;;;;20.78;49.74;98498.22;5064895;28;20116;-78
2023/10/21 03:02:35;;;;;;;3.10;1.92;;;;;;;20.73;50.12;98487.34;5063605;28;20039;-78
2023/10/21 03:05:00;;;;;;;3.15;2.00;;;;;;;20.89;49.99;98524.38;5064642;28;20107;-77
2023/10/21 03:07:25;;;;;;;2.70;1.83;;;;;;;20.44;49.95;98459.44;5064656;28;20033;-78
2023/10/21 03:09:51;;;;;;;3.65;1.75;;;;;;;20.71;49.77;98505.63;5063369;28;20032;-78
2023/10/21 03:12:16;;;;;;;2.47;2.10;;;;;;;20.85;50.04;98530.50;5047114;28;20466;-78
2023/10/21 03:14:41;;;;;;;2.42;1.98;;;;;;;20.78;50.21;98516.31;5046813;28;20028;-77
2023/10/21 03:17:06;;;;;;;2.75;1.95;;;;;;;20.56;49.96;98491.81;5046744;28;20765;-77
2023/10/21 03:19:32;;;;;;;2.22;1.92;;;;;;;20.78;50.02;98533.34;5064590;28;20040;-77
2023/10/21 03:21:57;;;;;;;2.72;1.90;;;;;;;20.29;50.22;98459.09;5064563;28;20024;-78
2023/10/21 03:24:23;;;;;;;3.65;2.22;;;;;;;20.46;50.01;98487.00;5045774;28;20025;-77
2023/10/21 03:26:48;;;;;;;3.72;2.20;;;;;;;20.25;50.37;98460.63;5046586;28;20418;-78
2023/10/21 03:29:13;;;;;;;2.42;1.70;;;;;;;20.73;50.02;98554.84;5046984;28;20025;-78
2023/10/21 03:31:38;;;;;;;1.85;1.50;;;;;;;20.49;50.16;98516.25;5064282;28;20064;-77
2023/10/21 03:34:04;;;;;;;2.42;2.13;;;;;;;20.69;50.50;98562.59;5064421;28;20032;-78
2023/10/21 03:36:29;;;;;;;2.05;1.60;;;;;;;20.50;50.28;98519.78;5062495;28;20043;-78
2023/10/21 03:38:54;;;;;;;3.65;2.35;;;;;;;20.58;50.20;98541.00;5046110;28;20033;-78
2023/10/21 03:41:20;;;;;;;3.42;2.10;;;;;;;20.51;50.22;98546.50;5064153;28;20024;-78
2023/10/21 03:43:45;;;;;;;2.78;1.70;;;;;;;20.62;50.40;98563.78;5046523;28;20033;-77
2023/10/21 03:46:17;;;;;;;3.22;1.90;;;;;;;20.44;50.29;98546.63;5046288;28;20028;-78
2023/10/21 03:48:42;;;;;;;2.97;2.10;;;;;;;20.45;50.55;98552.84;5038636;28;20048;-78
2023/10/21 03:51:11;;;;;;;3.03;2.03;;;;;;;20.26;50.34;98521.63;5046112;28;20087;-78
2023/10/21 03:53:37;;;;;;;2.53;1.70;;;;;;;20.63;50.55;98589.72;5044552;28;20029;-77
2023/10/21 03:56:02;;;;;;;2.25;1.90;;;;;;;20.55;50.32;98582.78;5045866;28;20028;-78
2023/10/21 03:58:28;;;;;;;2.03;1.50;;;;;;;20.28;50.42;98541.94;5046148;28;20028;-78
2023/10/21 04:00:55;;;;;;;3.40;2.00;;;;;;;20.60;50.68;98593.72;5046266;28;20076;-77
2023/10/21 04:03:20;;;;;;;2.10;1.60;;;;;;;20.60;50.64;98592.88;5063025;28;20029;-77
2023/10/21 04:05:46;;;;;;;2.10;1.58;;;;;;;20.42;50.35;98562.22;5045446;28;20021;-78
2023/10/21 04:08:11;;;;;;;2.30;1.67;;;;;;;20.26;50.43;98554.00;5045640;28;20025;-78
2023/10/21 04:10:36;;;;;;;3.25;1.80;;;;;;;20.50;50.73;98595.34;5063651;28;20045;-77
2023/10/21 04:13:02;;;;;;;2.78;1.60;;;;;;;20.45;50.51;98590.63;5063981;28;20528;-76
2023/10/21 04:15:28;;;;;;;2.35;1.70;;;;;;;20.57;50.51;98609.56;5045986;28;20029;-78
2023/10/21 04:17:53;;;;;;;2.97;2.30;;;;;;;20.18;50.82;98547.09;5063644;28;20028;-78
2023/10/21 04:20:18;;;;;;;1.42;1.30;;;;;;;20.35;50.67;98572.31;5047053;28;20417;-78
2023/10/21 04:22:44;;;;;;;2.72;1.55;;;;;;;20.39;50.32;98584.31;5060562;28;20025;-78
2023/10/21 04:25:12;;;;;;;2.10;1.40;;;;;;;20.49;50.55;98608.03;5063118;28;20036;-78
2023/10/21 04:27:38;;;;;;;2.33;1.60;;;;;;;20.40;50.64;98610.22;5046146;28;20089;-78
2023/10/21 04:30:04;;;;;;;2.05;1.40;;;;;;;20.53;50.72;98630.81;5049260;28;20048;-78
2023/10/21 04:32:30;;;;;;;2.30;1.80;;;;;;;20.37;50.53;98604.47;5062369;28;20024;-78
2023/10/21 04:34:56;;;;;;;2.20;1.52;;;;;;;20.51;50.62;98632.06;5045068;28;20028;-78
2023/10/21 04:37:21;;;;;;;2.50;1.40;;;;;;;20.38;50.77;98630.41;5062262;28;20032;-78
2023/10/21 04:39:46;;;;;;;2.53;1.80;;;;;;;20.50;50.80;98652.03;5045126;28;20402;-77
2023/10/21 04:42:12;;;;;;;1.60;1.27;;;;;;;20.04;50.77;98578.84;5045863;28;20033;-77
2023/10/21 04:44:37;;;;;;;1.75;1.52;;;;;;;20.36;50.79;98643.31;5061874;28;20025;-78
2023/10/21 04:47:02;;;;;;;2.75;2.15;;;;;;;20.38;50.67;98655.50;5045507;28;20108;-77
2023/10/21 04:49:28;;;;;;;2.17;1.95;;;;;;;20.29;50.81;98639.91;5045705;28;20025;-78
2023/10/21 04:51:53;;;;;;;2.45;1.65;;;;;;;20.38;50.80;98660.91;5062104;28;20033;-78
2023/10/21 04:54:19;;;;;;;1.77;1.50;;;;;;;20.26;50.71;98643.03;5060661;28;20029;-76
2023/10/21 04:56:44;;;;;;;1.95;1.58;;;;;;;20.36;50.67;98664.91;5045613;28;20100;-78
2023/10/21 04:59:09;;;;;;;2.22;1.60;;;;;;;20.27;50.86;98663.59;5045704;28;20033;-78
2023/10/21 05:01:35;;;;;;;2.53;1.50;;;;;;;19.99;50.77;98624.59;5048864;28;20033;-78
2023/10/21 05:04:00;;;;;;;3.83;2.22;;;;;;;19.88;50.86;98604.66;5062137;28;20501;-77
2023/10/21 05:06:26;;;;;;;2.17;1.77;;;;;;;20.27;50.70;98671.69;5062502;28;20021;-78
2023/10/21 05:08:51;;;;;;;2.92;1.90;;;;;;;20.23;50.64;98671.34;5040997;28;20044;-78
2023/10/21 05:11:16;;;;;;;1.77;1.40;;;;;;;20.30;50.92;98690.09;5061363;28;20130;-77
2023/10/21 05:13:41;;;;;;;1.80;1.42;;;;;;;20.39;51.08;98713.84;5062771;28;20043;-77
2023/10/21 05:16:07;;;;;;;1.65;1.42;;;;;;;20.30;50.75;98704.41;5045420;28;20047;-80
2023/10/21 05:18:32;;;;;;;2.08;1.42;;;;;;;20.14;51.03;98681.63;5044627;28;20094;-80
2023/10/21 05:20:58;;;;;;;2.22;1.75;;;;;;;20.17;50.98;98688.44;5044415;28;20032;-80
2023/10/21 05:23:23;;;;;;;1.85;1.27;;;;;;;20.35;50.95;98726.16;5060553;28;20029;-80
2023/10/21 05:25:49;;;;;;;2.30;1.60;;;;;;;20.33;50.80;98728.25;5063638;28;20028;-81
2023/10/21 05:28:14;;;;;;;1.70;1.40;;;;;;;20.08;50.94;98696.03;5062952;28;20028;-81
2023/10/21 05:30:41;;;;;;;2.22;1.30;;;;;;;20.32;50.82;98733.88;5062605;28;20596;-79
2023/10/21 05:33:06;;;;;;;2.55;1.67;;;;;;;20.32;51.21;98739.28;5045238;28;20108;-83
2023/10/21 05:35:32;;;;;;;2.55;1.40;;;;;;;20.23;51.28;98741.50;5028340;28;20021;-78
2023/10/21 05:37:57;;;;;;;2.78;1.70;;;;;;;20.29;51.41;98748.66;5062866;28;20041;-80
2023/10/21 05:40:22;;;;;;;2.17;1.60;;;;;;;20.26;51.38;98748.28;5064856;28;20024;-80
2023/10/21 05:42:47;;;;;;;1.58;1.38;;;;;;;20.29;51.27;98762.16;5066509;28;20116;-80
2023/10/21 05:45:13;;;;;;;1.83;1.42;;;;;;;20.18;51.00;98746.75;5032219;28;20029;-80
2023/10/21 05:47:38;;;;;;;1.92;1.52;;;;;;;20.24;51.51;98762.03;5065369;28;20425;-82
2023/10/21 05:50:04;;;;;;;1.83;1.40;;;;;;;20.21;51.74;98763.28;5065238;28;20033;-78
2023/10/21 05:52:29;;;;;;;2.08;1.65;;;;;;;20.29;51.66;98777.53;5047421;28;20029;-78
2023/10/21 05:54:55;;;;;;;1.95;1.40;;;;;;;20.25;51.67;98773.63;5047775;28;20024;-77
2023/10/21 05:57:21;;;;;;;2.15;1.40;;;;;;;20.22;51.75;98781.16;5064922;28;20064;-78
2023/10/21 05:59:46;;;;;;;2.03;1.30;;;;;;;20.14;51.67;98773.38;5048192;28;20553;-78
2023/10/21 06:02:11;;;;;;;3.00;1.70;;;;;;;20.14;51.79;98773.38;5064968;28;20025;-78
2023/10/21 06:04:37;;;;;;;2.33;1.30;;;;;;;20.21;51.76;98792.16;5046255;28;20120;-78
2023/10/21 06:07:03;;;;;;;2.63;1.60;;;;;;;20.12;52.01;98772.75;5048179;28;20021;-78
2023/10/21 06:09:28;;;;;;;2.20;1.42;;;;;;;20.16;52.31;98789.31;5064176;28;20127;-78
2023/10/21 06:11:53;;;;;;;2.20;1.58;;;;;;;20.08;52.28;98785.06;5064815;28;20105;-82
2023/10/21 06:14:19;;;;;;;3.45;1.40;;;;;;;20.18;52.44;98809.63;5063142;28;20035;-78
2023/10/21 06:16:44;;;;;;;2.42;1.75;;;;;;;20.23;52.15;98819.75;5065893;28;20084;-78
2023/10/21 06:19:10;;;;;;;2.47;1.45;;;;;;;20.22;52.41;98826.19;5064446;28;20028;-78
2023/10/21 06:21:36;;;;;;;6.43;1.80;;;;;;;20.19;52.52;98823.94;5065871;28;20028;-77
2023/10/21 06:24:03;;;;;;;2.65;1.60;;;;;;;20.15;52.39;98828.97;5046422;28;20497;-78
2023/10/21 06:26:29;;;;;;;1.80;1.35;;;;;;;20.20;52.73;98837.19;5064222;28;20017;-78
2023/10/21 06:28:54;;;;;;;2.30;1.48;;;;;;;20.16;52.53;98841.41;5065103;28;20062;-78
2023/10/21 06:31:20;;;;;;;2.20;1.70;;;;;;;20.10;52.48;98834.22;5047495;28;20029;-77
2023/10/21 06:37:08;;;;;;;2.60;1.30;;;;;;;20.20;52.49;98860.66;5063264;28;20036;-77
2023/10/21 06:39:36;;;;;;;2.05;1.50;;;;;;;20.18;52.49;98862.78;5047532;28;20017;-77
2023/10/21 06:42:01;;;;;;;2.80;1.50;;;;;;;20.19;52.28;98861.72;5047016;28;20516;-77
2023/10/21 06:44:28;;;;;;;1.65;1.30;;;;;;;20.18;52.64;98865.47;5046706;28;20025;-77
2023/10/21 06:50:15;;;;;;;2.05;1.48;;;;;;;20.10;52.55;98860.38;5063743;28;20039;-78
2023/10/21 06:52:40;;;;;;;2.30;1.40;;;;;;;20.15;52.32;98887.50;5063572;28;20076;-76
2023/10/21 06:58:28;;;;;;;1.90;1.40;;;;;;;20.00;52.27;98871.69;5065072;28;20571;-76
2023/10/21 07:00:53;;;;;;;1.92;1.30;;;;;;;20.00;52.77;98876.25;5046553;28;20017;-76
2023/10/21 07:03:19;;;;;;;2.15;1.38;;;;;;;19.97;52.33;98877.56;5045131;28;20093;-77
2023/10/21 07:05:45;;;;;;;2.33;1.33;;;;;;;20.07;52.78;98893.19;5046426;28;20195;-76
2023/10/21 07:08:11;;;;;;;2.60;1.40;;;;;;;19.87;52.33;98866.44;5031102;28;20031;-77
2023/10/21 07:10:38;;;;;;;1.98;1.30;;;;;;;19.96;52.59;98889.38;5064105;28;20071;-76
2023/10/21 07:13:03;;;;;;;3.28;1.30;;;;;;;20.05;52.41;98898.84;5063396;28;20525;-76
2023/10/21 07:15:31;;;;;;;1.77;1.38;;;;;;;19.93;52.80;98887.97;5063355;28;20025;-76
2023/10/21 07:17:57;;;;;;;1.25;1.15;;;;;;;19.99;52.30;98899.72;5047181;28;20063;-76
2023/10/21 07:20:23;;;;;;;1.35;1.10;;;;;;;19.93;52.40;98906.84;5046117;28;20059;-78
2023/10/21 07:22:49;;;;;;;2.40;1.67;;;;;;;20.08;52.37;98933.44;5062687;28;20033;-78
2023/10/21 07:25:15;;;;;;;1.95;1.40;;;;;;;19.93;52.55;98917.63;5045680;28;20025;-77
2023/10/21 07:27:41;;;;;;;2.55;1.65;;;;;;;19.85;52.64;98896.34;5029591;28;20021;-78
2023/10/21 07:30:07;;;;;;;1.80;1.13;;;;;;;20.07;52.81;98925.56;5064095;28;20040;-77
2023/10/21 07:32:32;;;;;;;2.03;1.30;;;;;;;20.00;52.92;98922.13;5063262;28;20024;-77
2023/10/21 07:34:57;;;;;;;2.70;1.20;;;;;;;19.93;52.66;98919.50;5045648;28;20021;-78
2023/10/21 07:37:23;;;;;;;2.50;1.40;;;;;;;20.06;52.53;98942.81;5064468;28;20044;-77
2023/10/21 07:39:48;;;;;;;2.88;1.60;;;;;;;20.01;52.63;98938.09;5045863;28;20111;-78
2023/10/21 07:42:14;;;;;;;1.50;1.35;;;;;;;19.94;52.64;98926.53;5064021;28;20044;-77
2023/10/21 07:44:41;;;;;;;1.75;1.10;;;;;;;19.73;52.97;98915.13;5046287;28;20036;-77
2023/10/21 07:47:06;;;;;;;2.05;1.30;;;;;;;19.88;52.84;98922.03;5046228;28;20033;-78
2023/10/21 07:49:32;;;;;;;1.70;1.25;;;;;;;20.05;52.96;98946.53;5061364;28;20032;-78
2023/10/21 07:51:57;;;;;;;2.58;1.70;;;;;;;19.93;52.64;98933.81;5064097;28;20115;-79
2023/10/21 07:54:22;;;;;;;2.05;1.20;;;;;;;19.95;52.67;98938.97;5045384;28;20025;-78
2023/10/21 07:56:47;;;;;;;3.05;1.17;;;;;;;19.83;52.92;98927.25;5045864;28;20025;-77
2023/10/21 07:59:13;;;;;;;1.63;1.30;;;;;;;20.02;53.04;98958.63;5045685;28;20029;-77
2023/10/21 08:01:39;;;;;;;2.17;1.23;;;;;;;20.03;53.18;98960.25;5045526;28;20036;-78
2023/10/21 08:04:04;;;;;;;2.53;1.70;;;;;;;20.03;53.05;98971.06;5045877;28;20120;-77
2023/10/21 08:06:30;;;;;;;2.92;1.58;;;;;;;19.96;53.03;98957.66;5061981;28;20029;-78
2023/10/21 08:08:56;;;;;;;1.88;1.20;;;;;;;20.01;53.02;98969.59;5044974;28;20029;-78
2023/10/21 08:11:22;;;;;;;5.35;2.15;;;;;;;19.93;53.01;98976.97;5054931;28;20055;-78
2023/10/21 08:13:47;;;;;;;2.05;1.10;;;;;;;20.01;52.88;98988.50;5046095;28;20024;-77
2023/10/21 08:16:12;;;;;;;2.08;1.30;;;;;;;19.98;53.03;98990.59;5045911;28;20087;-77
2023/10/21 08:18:39;;;;;;;1.90;1.33;;;;;;;20.03;53.03;98998.03;5063391;28;20043;-78
2023/10/21 08:21:05;;;;;;;2.50;1.17;;;;;;;20.04;52.94;99004.25;5045321;28;20040;-78
2023/10/21 08:23:31;;;;;;;2.03;1.20;;;;;;;19.89;53.09;98985.72;5061823;28;20021;-77
2023/10/21 08:25:57;;;;;;;2.25;1.38;;;;;;;19.90;52.73;98996.28;5048078;28;20059;-78
2023/10/21 08:28:23;;;;;;;2.00;1.42;;;;;;;20.01;52.94;99016.31;5061546;28;20032;-78
2023/10/21 08:30:49;;;;;;;2.33;1.20;;;;;;;20.01;52.91;99019.03;5062117;28;20064;-78
2023/10/21 08:33:14;;;;;;;1.23;1.00;;;;;;;19.94;52.98;99018.25;5061732;28;20056;-78
2023/10/21 08:35:40;;;;;;;2.63;1.85;;;;;;;19.97;52.84;99017.81;5063020;28;20036;-77
2023/10/21 08:38:06;;;;;;;1.80;1.17;;;;;;;19.92;52.97;99015.78;5045073;28;20035;-77
2023/10/21 08:40:31;;;;;;;2.60;1.65;;;;;;;19.93;52.90;99014.72;5062802;28;20033;-77
2023/10/21 08:43:00;;;;;;;2.47;1.10;;;;;;;19.75;52.90;98992.25;5063155;28;20025;-77
2023/10/21 08:45:25;;;;;;;1.60;1.20;;;;;;;19.68;53.04;98984.25;5062256;28;20032;-78
2023/10/21 08:47:51;;;;;;;2.80;1.58;;;;;;;19.97;53.11;99031.28;5044956;28;20088;-77
2023/10/21 08:50:17;;;;;;;1.48;1.08;;;;;;;19.97;53.07;99039.38;5063244;28;20029;-78
2023/10/21 08:52:43;;;;;;;1.92;1.20;;;;;;;19.96;52.81;99046.66;5028676;28;20084;-78
2023/10/21 08:55:09;;;;;;;1.60;1.00;;;;;;;19.96;53.17;99046.66;5044843;28;20029;-78
2023/10/21 08:57:36;;;;;;;2.17;1.15;;;;;;;19.87;53.18;99036.34;5045453;28;20027;-78
2023/10/21 09:00:04;;;;;;;2.58;1.10;;;;;;;19.79;53.03;99034.75;5062853;28;20111;-78
2023/10/21 09:02:29;;;;;;;1.35;1.10;;;;;;;19.95;53.07;99058.47;5045658;28;20100;-77
2023/10/21 09:04:54;;;;;;;1.60;1.00;;;;;;;19.43;53.01;98989.59;5062838;28;20033;-77
2023/10/21 09:07:20;;;;;;;1.63;1.00;;;;;;;19.80;53.22;99052.59;5044723;28;20016;-77
2023/10/21 09:09:45;;;;;;;2.30;1.10;;;;;;;19.71;53.18;99062.00;5044600;28;20060;-77
2023/10/21 09:12:14;;;;;;;1.42;0.90;;;;;;;19.94;53.14;99104.56;5025376;28;20046;-78
2023/10/21 09:15:01;;;;;;;3.25;1.67;;;;;;;19.82;53.01;99092.81;5042683;28;20029;-78
2023/10/21 09:17:37;;;;;;;1.55;1.00;;;;;;;19.70;53.19;99079.22;5029614;28;20033;-78
2023/10/21 09:20:10;;;;;;;0.90;0.80;;;;;;;19.94;52.86;99120.75;5029352;28;20040;-78
2023/10/21 09:22:36;;;;;;;2.10;1.50;;;;;;;19.94;53.20;99120.75;5028404;28;20370;-79
2023/10/21 09:25:08;;;;;;;1.60;1.10;;;;;;;19.88;52.96;99121.59;5028277;28;20055;-78
2023/10/21 09:27:34;;;;;;;1.50;1.10;;;;;;;19.81;53.45;99112.75;5045547;28;20021;-78
2023/10/21 09:30:00;;;;;;;1.85;0.98;;;;;;;19.92;53.33;99128.22;5028840;28;20092;-77
2023/10/21 09:32:33;;;;;;;1.58;0.98;;;;;;;19.96;53.16;99145.59;5046923;28;20030;-78
2023/10/21 09:35:13;;;;;;;2.35;1.10;;;;;;;19.73;53.25;99108.44;5028751;28;20358;-78
2023/10/21 09:37:38;;;;;;;2.13;1.02;;;;;;;19.98;53.13;99148.94;5044805;28;20115;-79
2023/10/21 09:40:06;;;;;;;1.40;1.10;;;;;;;19.96;52.94;99142.91;5028041;28;20025;-78
2023/10/21 09:42:36;;;;;;;1.67;1.17;;;;;;;19.99;53.01;99155.97;5028978;28;20029;-78
2023/10/21 09:45:03;;;;;;;1.50;1.00;;;;;;;19.93;53.06;99144.19;5044083;28;20338;-79
2023/10/21 09:47:29;;;;;;;1.75;1.00;;;;;;;19.74;53.23;99120.88;5044854;28;20022;-79
2023/10/21 09:49:56;;;;;;;1.85;1.20;;;;;;;19.99;52.86;99155.97;5028492;28;20074;-77
2023/10/21 09:52:27;;;;;;;1.15;0.95;;;;;;;20.06;53.04;99164.84;5040020;28;20033;-78
2023/10/21 09:54:56;;;;;;;1.08;0.93;;;;;;;19.90;53.13;99152.72;5028162;28;20052;-80
2023/10/21 09:57:21;;;;;;;1.73;0.98;;;;;;;19.83;53.19;99140.31;5044262;28;20033;-78
2023/10/21 09:59:47;;;;;;;2.70;1.35;;;;;;;19.95;53.14;99162.84;5028736;28;20556;-77
2023/10/21 10:02:13;;;;;;;1.40;1.13;;;;;;;20.12;52.93;99177.47;5044679;28;20084;-79
2023/10/21 10:04:38;;;;;;;1.38;1.05;;;;;;;20.15;52.96;99189.69;5044370;28;20056;-78
2023/10/21 10:07:07;;;;;;;1.17;0.98;;;;;;;20.17;53.15;99193.81;5045569;28;20033;-78
2023/10/21 10:09:39;;;;;;;1.30;1.15;;;;;;;19.84;53.06;99132.03;5043312;28;20021;-78
2023/10/21 10:12:12;;;;;;;0.75;0.70;;;;;;;20.10;52.92;99173.34;5027909;28;20465;-77
2023/10/21 10:14:37;;;;;;;1.50;1.00;;;;;;;19.97;52.71;99142.72;5044435;28;20026;-77
2023/10/21 10:17:05;;;;;;;3.90;0.85;;;;;;;20.28;52.71;99195.00;5044617;28;20073;-78
2023/10/21 10:19:43;;;;;;;1.77;0.98;;;;;;;20.25;52.83;99187.31;5026836;28;20029;-79
2023/10/21 10:22:19;;;;;;;0.98;0.80;;;;;;;20.37;52.85;99212.56;5043367;28;20032;-78
2023/10/21 10:24:56;;;;;;;1.45;0.98;;;;;;;20.40;52.77;99212.13;5042530;28;20048;-78
2023/10/21 10:28:05;;;;;;;1.20;0.95;;;;;;;20.36;52.97;99193.91;5043311;28;20033;-78
2023/10/21 10:30:32;;;;;;;1.30;0.90;;;;;;;20.51;52.33;99220.59;4987487;28;20034;-77
2023/10/21 10:33:02;;;;;;;1.40;1.05;;;;;;;20.45;52.52;99206.91;4987133;28;20057;-78
2023/10/21 10:35:32;;;;;;;1.02;0.90;;;;;;;20.59;52.34;99226.53;4970887;28;20030;-78
2023/10/21 10:37:59;;;;;;;1.15;0.80;;;;;;;20.63;52.54;99224.22;4987161;28;20026;-78
2023/10/21 10:40:32;;;;;;;1.08;0.73;;;;;;;20.60;52.49;99214.72;4986385;28;20049;-78
2023/10/21 10:42:58;;;;;;;1.25;0.82;;;;;;;20.75;52.08;99230.56;4987027;28;20035;-78
2023/10/21 10:45:23;;;;;;;1.00;0.90;;;;;;;20.65;51.83;99214.06;5003509;28;20038;-78
2023/10/21 10:47:59;;;;;;;0.88;0.68;;;;;;;20.78;51.97;99223.91;4987482;28;20030;-78
2023/10/21 10:50:24;;;;;;;1.48;0.75;;;;;;;20.76;51.51;99218.72;4986538;28;20480;-79
2023/10/21 10:52:49;;;;;;;0.98;0.85;;;;;;;20.85;51.54;99233.59;4982580;28;20035;-77
2023/10/21 10:55:19;;;;;;;1.73;0.80;;;;;;;20.73;51.53;99208.38;5002556;28;20512;-78
2023/10/21 10:57:44;;;;;;;1.77;0.90;;;;;;;20.92;51.58;99238.94;4988079;28;20052;-78
2023/10/21 11:00:11;;;;;;;2.65;1.60;;;;;;;20.89;51.38;99220.47;4987228;28;20105;-76
2023/10/21 11:02:42;;;;;;;5.75;3.35;;;;;;;21.05;51.67;99251.50;4987026;28;20034;-77
2023/10/21 11:05:08;;;;;;;5.57;2.72;;;;;;;21.08;51.55;99251.88;4991068;28;20034;-77
2023/10/21 11:07:35;;;;;;;6.28;2.42;;;;;;;21.05;51.56;99249.63;5043789;28;20025;-77
2023/10/21 11:10:01;;;;;;;6.85;2.83;;;;;;;21.08;51.61;99251.06;5027706;28;20059;-77
2023/10/21 11:12:27;;;;;;;6.07;2.85;;;;;;;21.16;51.68;99277.78;5047280;28;20029;-78
2023/10/21 11:14:53;;;;;;;5.85;2.85;;;;;;;20.65;51.85;99189.75;5046664;28;20033;-77
2023/10/21 11:17:18;;;;;;;6.50;2.60;;;;;;;21.16;51.83;99269.69;5043835;28;20032;-78
2023/10/21 11:19:43;;;;;;;6.10;2.88;;;;;;;21.20;51.46;99276.31;5045204;28;20100;-77
2023/10/21 11:22:25;;;;;;;5.32;2.33;;;;;;;21.22;51.77;99276.88;5030191;28;20028;-79
2023/10/21 11:24:50;;;;;;;4.75;2.15;;;;;;;21.25;51.71;99278.34;5046007;28;20036;-78
2023/10/21 11:27:16;;;;;;;5.03;2.28;;;;;;;20.70;51.80;99188.03;5029919;28;20033;-78
2023/10/21 11:29:41;;;;;;;5.80;2.00;;;;;;;21.27;51.61;99290.56;5062320;28;20510;-77
2023/10/21 11:32:11;;;;;;;7.18;3.00;;;;;;;21.06;51.69;99248.56;5046664;28;20068;-76
2023/10/21 11:34:37;;;;;;;4.07;2.22;;;;;;;20.84;51.50;99209.50;5059816;28;20029;-75
2023/10/21 11:37:04;;;;;;;5.97;2.35;;;;;;;21.06;51.63;99251.25;5046035;28;20028;-76
2023/10/21 11:39:31;;;;;;;4.32;2.47;;;;;;;21.36;51.67;99293.81;5045764;28;20028;-76
2023/10/21 11:41:56;;;;;;;5.13;2.45;;;;;;;20.70;51.46;99187.22;5063085;28;20428;-76